createdAt,value
2018-12-18T19:16:38.763Z,93.54
2018-12-18T19:17:04.341Z,92.73
2018-12-18T19:17:29.918Z,91.39
2018-12-18T19:17:55.467Z,90.33
2018-12-18T19:18:21.046Z,85.49
2018-12-18T19:18:47.484Z,85.58
2018-12-18T19:19:12.197Z,85.58
2018-12-18T19:19:37.772Z,84.72
2018-12-18T19:20:03.340Z,84.77
2018-12-18T19:20:28.910Z,84.77
2018-12-18T19:20:54.504Z,84.77
2018-12-18T19:21:20.065Z,84.77
2018-12-18T19:21:45.684Z,84.52
2018-12-18T19:22:11.339Z,84.52
2018-12-18T19:22:36.989Z,84.23
2018-12-18T19:23:02.616Z,84.52
2018-12-18T19:23:28.226Z,84.33
2018-12-18T19:23:53.908Z,83.6
2018-12-18T19:24:19.490Z,83.22
2018-12-18T19:24:45.078Z,83.03
2018-12-18T19:25:10.638Z,82.54
2018-12-18T19:25:36.246Z,82.45
2018-12-18T19:26:01.835Z,81.97
2018-12-18T19:26:27.525Z,82.1
2018-12-18T19:26:53.146Z,81.63
2018-12-18T19:27:18.747Z,81.15
2018-12-18T19:27:44.344Z,80.76
2018-12-18T19:28:09.924Z,80.47
2018-12-18T19:28:35.502Z,79.8
2018-12-18T19:29:01.086Z,80.04
2018-12-18T19:29:26.645Z,79.36
2018-12-18T19:29:52.235Z,79.55
2018-12-18T19:30:17.822Z,78.98
2018-12-18T19:30:43.405Z,78.98
2018-12-18T19:31:08.979Z,78.88
2018-12-18T19:31:34.604Z,78.44
2018-12-18T19:32:00.212Z,78.25
2018-12-18T19:32:25.782Z,78.06
2018-12-18T19:32:51.386Z,77.76
2018-12-18T19:33:16.936Z,77.38
2018-12-18T19:33:42.509Z,76.9
2018-12-18T19:34:08.074Z,77.29
2018-12-18T19:34:33.642Z,76.9
2018-12-18T19:34:59.214Z,76.42
2018-12-18T19:35:24.798Z,76.17
2018-12-18T19:35:50.384Z,76.17
2018-12-18T19:36:15.967Z,75.88
2018-12-18T19:36:41.559Z,75.98
2018-12-18T19:37:07.185Z,76.17
2018-12-18T19:37:32.753Z,75.98
2018-12-18T19:38:03.134Z,75.21
2018-12-18T19:38:23.912Z,75.21
2018-12-18T19:38:49.489Z,75.11
2018-12-18T19:39:15.048Z,75.02
2018-12-18T19:39:40.622Z,74.86
2018-12-18T19:40:06.180Z,74.38
2018-12-18T19:40:31.739Z,74.19
2018-12-18T19:40:57.387Z,73.99
2018-12-18T19:41:22.956Z,74.19
2018-12-18T19:41:48.564Z,73.71
2018-12-18T19:42:14.148Z,73.8
2018-12-18T19:42:39.879Z,73.71
2018-12-18T19:43:05.483Z,73.42
2018-12-18T19:43:31.245Z,72.94
2018-12-18T19:43:56.848Z,73.32
2018-12-18T19:44:22.574Z,73.22
2018-12-18T19:44:48.108Z,73.16
2018-12-18T19:45:15.443Z,72.68
2018-12-18T19:45:40.496Z,72.11
2018-12-18T19:46:06.114Z,72.59
2018-12-18T19:46:31.708Z,72.68
2018-12-18T19:46:57.275Z,72.39
2018-12-18T19:47:22.849Z,71.91
2018-12-18T19:47:48.443Z,72.11
2018-12-18T19:48:14.050Z,71.53
2018-12-18T19:48:39.647Z,71.76
2018-12-18T19:49:05.254Z,71.18
2018-12-18T19:49:30.843Z,71.18
2018-12-18T19:49:56.437Z,71.18
2018-12-18T19:50:21.985Z,71.18
2018-12-18T19:50:47.554Z,70.89
2018-12-18T19:51:13.171Z,70.98
2018-12-18T19:51:38.767Z,70.89
2018-12-18T19:52:04.336Z,70.5
2018-12-18T19:52:29.922Z,70.41
2018-12-18T19:52:55.485Z,70.79
2018-12-18T19:53:21.084Z,70.5
2018-12-18T19:53:46.684Z,70.21
2018-12-18T19:54:12.274Z,70.12
2018-12-18T19:54:37.842Z,70.21
2018-12-18T19:55:03.463Z,69.93
2018-12-18T19:55:29.055Z,69.83
2018-12-18T19:55:54.683Z,69.77
2018-12-18T19:56:20.310Z,69.83
2018-12-18T19:56:45.879Z,69.93
2018-12-18T19:57:11.491Z,69.67
2018-12-18T19:57:37.105Z,69.48
2018-12-18T19:58:02.721Z,69.38
2018-12-18T19:58:28.384Z,69.29
2018-12-18T19:59:27.065Z,69.38
2018-12-18T19:59:52.645Z,68.9
2018-12-18T20:00:18.232Z,68.9
2018-12-18T20:00:43.816Z,68.99
2018-12-18T20:01:09.382Z,69.09
2018-12-18T20:01:34.958Z,68.61
2018-12-18T20:02:00.548Z,68.61
2018-12-18T20:02:26.128Z,68.9
2018-12-18T20:02:51.706Z,68.71
2018-12-18T20:03:17.277Z,68.23
2018-12-18T20:03:42.946Z,68.32
2018-12-18T20:04:08.452Z,68.8
2018-12-18T20:04:34.018Z,68.13
2018-12-18T20:04:59.612Z,68.42
2018-12-18T20:05:25.212Z,68.23
2018-12-18T20:05:50.764Z,68.04
2018-12-18T20:06:16.378Z,67.84
2018-12-18T20:06:41.940Z,67.74
2018-12-18T20:07:07.503Z,67.74
2018-12-18T20:07:33.089Z,67.65
2018-12-18T20:07:58.680Z,67.74
2018-12-18T20:08:24.283Z,67.46
2018-12-18T20:08:49.850Z,67.07
2018-12-18T20:09:15.412Z,67.46
2018-12-18T20:09:40.993Z,67.16
2018-12-18T20:10:06.579Z,67.3
2018-12-18T20:10:32.160Z,67
2018-12-18T20:10:57.765Z,67.2
2018-12-18T20:11:23.357Z,67.1
2018-12-18T20:11:48.943Z,67.1
2018-12-18T20:12:14.515Z,66.91
2018-12-18T20:12:40.116Z,67.1
2018-12-18T20:13:05.703Z,67.4
2018-12-18T20:13:31.275Z,66.62
2018-12-18T20:13:56.867Z,66.33
2018-12-18T20:14:22.456Z,66.52
2018-12-18T20:14:48.092Z,66.62
2018-12-18T20:15:13.655Z,67.1
2018-12-18T20:15:39.219Z,66.62
2018-12-18T20:16:04.800Z,66.62
2018-12-18T20:16:30.388Z,66.24
2018-12-18T20:16:55.996Z,66.04
2018-12-18T20:17:21.564Z,66.62
2018-12-18T20:17:47.148Z,66.43
2018-12-18T20:18:12.746Z,66.52
2018-12-18T20:18:38.345Z,66.52
2018-12-18T20:19:03.915Z,66.72
2018-12-18T20:19:29.478Z,66.52
2018-12-18T20:19:55.059Z,66.33
2018-12-18T20:20:20.643Z,66.43
2018-12-18T20:20:46.265Z,66.43
2018-12-18T20:21:11.829Z,66.04
2018-12-18T20:21:37.417Z,66.43
2018-12-18T20:22:03.011Z,66.14
2018-12-18T20:22:28.582Z,66.14
2018-12-18T20:22:54.164Z,66.43
2018-12-18T20:23:19.766Z,66.14
2018-12-18T20:23:45.347Z,66.43
2018-12-18T20:24:10.919Z,66.52
2018-12-18T20:24:36.479Z,66.33
2018-12-18T20:25:02.094Z,66.04
2018-12-18T20:25:27.712Z,66.14
2018-12-18T20:25:53.290Z,65.95
2018-12-18T20:26:18.875Z,66.24
2018-12-18T20:26:44.457Z,65.95
2018-12-18T20:27:10.055Z,66.14
2018-12-18T20:27:35.604Z,66.04
2018-12-18T20:28:01.185Z,66.08
2018-12-18T20:28:26.765Z,65.85
2018-12-18T20:28:52.348Z,65.85
2018-12-18T20:29:17.930Z,65.85
2018-12-18T20:29:43.503Z,65.85
2018-12-18T20:30:09.076Z,65.37
2018-12-18T20:30:34.649Z,65.59
2018-12-18T20:31:00.239Z,65.4
2018-12-18T20:31:25.813Z,65.66
2018-12-18T20:31:51.378Z,65.47
2018-12-18T20:32:16.959Z,65.47
2018-12-18T20:32:42.572Z,65.3
2018-12-18T20:33:08.168Z,65.27
2018-12-18T20:33:33.741Z,65.47
2018-12-18T20:33:59.333Z,65.5
2018-12-18T20:34:24.931Z,65.47
2018-12-18T20:34:50.498Z,65.3
2018-12-18T20:35:16.093Z,65.59
2018-12-18T20:35:41.671Z,65.5
2018-12-18T20:36:07.249Z,65.2
2018-12-18T20:36:32.833Z,65.3
2018-12-18T20:36:58.419Z,65.11
2018-12-18T20:37:24.023Z,65.2
2018-12-18T20:37:49.656Z,65.2
2018-12-18T20:38:16.920Z,65.3
2018-12-18T20:38:40.830Z,65.01
2018-12-18T20:39:06.399Z,65.5
2018-12-18T20:39:31.981Z,65.01
2018-12-18T20:39:57.560Z,65.11
2018-12-18T20:40:23.143Z,65.11
2018-12-18T20:40:48.740Z,65.2
2018-12-18T20:41:14.304Z,65.2
2018-12-18T20:41:39.894Z,65.01
2018-12-18T20:42:05.508Z,65.3
2018-12-18T20:42:31.091Z,64.92
2018-12-18T20:42:56.682Z,64.92
2018-12-18T20:43:22.258Z,64.82
2018-12-18T20:43:47.828Z,65.01
2018-12-18T20:44:13.427Z,65.11
2018-12-18T20:44:39.057Z,64.72
2018-12-18T20:45:04.615Z,64.53
2018-12-18T20:45:30.198Z,64.53
2018-12-18T20:45:55.760Z,64.43
2018-12-18T20:46:21.359Z,64.43
2018-12-18T20:46:46.925Z,64.82
2018-12-18T20:47:12.500Z,64.63
2018-12-18T20:47:38.087Z,64.72
2018-12-18T20:48:03.696Z,64.63
2018-12-18T20:48:29.281Z,64.43
2018-12-18T20:48:54.865Z,64.63
2018-12-18T20:49:20.453Z,65.01
2018-12-18T20:49:46.041Z,64.82
2018-12-18T20:50:11.609Z,64.79
2018-12-18T20:50:37.201Z,65.01
2018-12-18T20:51:02.786Z,64.82
2018-12-18T20:51:28.367Z,65.01
2018-12-18T20:51:53.974Z,64.82
2018-12-18T20:52:19.546Z,65.01
2018-12-18T20:52:45.095Z,64.24
2018-12-18T20:53:10.667Z,64.24
2018-12-18T20:53:36.266Z,64.34
2018-12-18T20:54:01.841Z,64.24
2018-12-18T20:54:27.445Z,64.24
2018-12-18T20:54:53.041Z,64.24
2018-12-18T20:55:18.609Z,64.24
2018-12-18T20:55:44.183Z,63.95
2018-12-18T20:56:10.488Z,64.24
2018-12-18T20:56:36.099Z,64.43
2018-12-18T20:57:01.615Z,64.15
2018-12-18T20:57:27.192Z,64.15
2018-12-18T20:57:52.764Z,64.34
2018-12-18T20:58:18.346Z,64.24
2018-12-18T20:58:43.932Z,64.34
2018-12-18T20:59:09.502Z,64.05
2018-12-18T20:59:35.090Z,64.24
2018-12-18T21:00:00.726Z,64.24
2018-12-18T21:00:26.311Z,64.15
2018-12-18T21:00:51.910Z,64.24
2018-12-18T21:01:17.493Z,64.05
2018-12-18T21:01:43.106Z,64.24
2018-12-18T21:02:08.694Z,64.43
2018-12-18T21:02:34.267Z,64.24
2018-12-18T21:02:59.880Z,64.43
2018-12-18T21:03:25.472Z,64.34
2018-12-18T21:03:51.041Z,64.43
2018-12-18T21:04:16.626Z,64.05
2018-12-18T21:04:42.199Z,63.95
2018-12-18T21:05:07.828Z,64.43
2018-12-18T21:05:33.386Z,64.43
2018-12-18T21:05:58.968Z,64.34
2018-12-18T21:06:24.543Z,64.24
2018-12-18T21:06:50.130Z,64.34
2018-12-18T21:07:15.750Z,64.15
2018-12-18T21:07:41.314Z,63.85
2018-12-18T21:08:06.916Z,64.05
2018-12-18T21:08:32.497Z,63.85
2018-12-18T21:08:58.098Z,63.95
2018-12-18T21:09:23.680Z,63.57
2018-12-18T21:09:49.278Z,63.76
2018-12-18T21:10:14.848Z,64.05
2018-12-18T21:10:40.433Z,63.85
2018-12-18T21:11:06.040Z,63.95
2018-12-18T21:11:31.622Z,64.05
2018-12-18T21:11:57.207Z,64.24
2018-12-18T21:12:22.800Z,64.53
2018-12-18T21:12:48.368Z,64.05
2018-12-18T21:13:13.948Z,63.95
2018-12-18T21:13:39.532Z,63.95
2018-12-18T21:14:05.126Z,63.67
2018-12-18T21:14:30.697Z,63.67
2018-12-18T21:15:00.667Z,63.85
2018-12-18T21:15:21.853Z,63.95
2018-12-18T21:15:47.414Z,63.67
2018-12-18T21:16:12.993Z,63.95
2018-12-18T21:16:38.575Z,63.76
2018-12-18T21:17:04.153Z,63.67
2018-12-18T21:17:29.731Z,63.76
2018-12-18T21:17:55.298Z,63.76
2018-12-18T21:18:20.848Z,63.67
2018-12-18T21:18:46.461Z,63.67
2018-12-18T21:19:12.043Z,63.76
2018-12-18T21:19:37.612Z,63.67
2018-12-18T21:20:03.193Z,63.76
2018-12-18T21:20:28.767Z,63.67
2018-12-18T21:20:54.345Z,63.67
2018-12-18T21:21:19.937Z,63.47
2018-12-18T21:21:45.517Z,63.57
2018-12-18T21:22:11.063Z,63.95
2018-12-18T21:22:36.633Z,63.47
